Time;durP1;ratioP1;P1;durP2;ratioP2;P2;SDS_P1;SDS_P2;PMS_P1;PMS_P2;Temp;Humidity;BMP_temperature;BMP_pressure;BME280_temperature;BME280_humidity;BME280_pressure;Samples;Min_cycle;Max_cycle;Signal;HPM_P1;HPM_P2
2023/04/16 00:01:33;;;;;;;23.75;17.17;;;;;;;;;;4974699;28;20058;-77
2023/04/16 00:04:00;;;;;;;22.98;16.88;;;;;;;;;;4942967;28;20054;-77
2023/04/16 00:06:27;;;;;;;23.35;16.02;;;;;;;;;;4942997;28;20086;-77
2023/04/16 00:08:54;;;;;;;21.55;16.05;;;;;;;;;;4959110;28;20076;-78
2023/04/16 00:11:21;;;;;;;23.48;16.42;;;;;;;;;;4960302;28;20054;-78
2023/04/16 00:13:48;;;;;;;25.45;17.17;;;;;;;;;;4950208;28;20133;-77
2023/04/16 00:16:14;;;;;;;21.80;15.80;;;;;;;;;;4957599;28;20058;-77
2023/04/16 00:18:41;;;;;;;23.25;16.50;;;;;;;;;;4973795;28;20679;-77
2023/04/16 00:21:08;;;;;;;22.25;15.30;;;;;;;;;;4983078;28;20062;-78
2023/04/16 00:23:35;;;;;;;20.42;15.45;;;;;;;;;;4961280;28;20057;-78
2023/04/16 00:26:01;;;;;;;24.77;17.70;;;;;;;;;;4961827;28;20054;-78
2023/04/16 00:28:28;;;;;;;26.05;17.13;;;;;;;;;;4978605;28;20141;-79
2023/04/16 00:30:55;;;;;;;20.88;16.00;;;;;;;;;;4976565;28;20046;-79
2023/04/16 00:33:22;;;;;;;20.23;15.65;;;;;;;;;;4976640;28;20054;-78
2023/04/16 00:35:50;;;;;;;22.38;15.50;;;;;;;;;;4960503;28;20054;-79
2023/04/16 00:38:16;;;;;;;21.83;15.35;;;;;;;;;;4966791;28;20054;-77
2023/04/16 00:40:43;;;;;;;20.92;15.48;;;;;;;;;;4966488;28;20068;-78
2023/04/16 00:43:10;;;;;;;20.30;14.70;;;;;;;;;;4964620;28;20072;-78
2023/04/16 00:45:37;;;;;;;20.15;15.00;;;;;;;;;;4964259;28;20133;-78
2023/04/16 00:48:04;;;;;;;21.00;15.07;;;;;;;;;;4964157;28;20058;-78
2023/04/16 00:50:30;;;;;;;21.05;15.15;;;;;;;;;;4979509;28;20417;-78
2023/04/16 00:52:57;;;;;;;21.15;15.02;;;;;;;;;;4946347;28;20121;-78
2023/04/16 00:55:24;;;;;;;19.33;15.07;;;;;;;;;;4962959;28;20114;-78
2023/04/16 00:57:51;;;;;;;19.98;15.23;;;;;;;;;;4949626;28;20145;-78
2023/04/16 01:00:19;;;;;;;19.42;14.05;;;;;;;;;;4982098;28;20080;-78
2023/04/16 01:02:45;;;;;;;21.83;16.08;;;;;;;;;;4983019;28;20056;-78
2023/04/16 01:05:12;;;;;;;20.42;14.90;;;;;;;;;;4982109;28;20153;-77
2023/04/16 01:07:39;;;;;;;17.50;13.93;;;;;;;;;;4997371;28;20060;-79
2023/04/16 01:10:06;;;;;;;20.02;14.23;;;;;;;;;;4996537;28;20085;-78
2023/04/16 01:12:33;;;;;;;17.30;13.55;;;;;;;;;;4964971;28;20524;-78
2023/04/16 01:15:00;;;;;;;21.10;14.10;;;;;;;;;;4980704;28;20146;-79
2023/04/16 01:17:26;;;;;;;19.30;13.25;;;;;;;;;;4964197;28;20049;-78
2023/04/16 01:19:58;;;;;;;19.25;14.10;;;;;;;;;;4980555;28;20065;-78
2023/04/16 01:22:26;;;;;;;17.83;13.60;;;;;;;;;;4965624;28;20054;-79
2023/04/16 01:24:53;;;;;;;19.75;13.75;;;;;;;;;;4965122;28;20269;-80
2023/04/16 01:27:19;;;;;;;17.60;13.55;;;;;;;;;;4998287;28;20058;-78
2023/04/16 01:29:46;;;;;;;20.90;13.90;;;;;;;;;;4976402;28;20422;-75
2023/04/16 01:32:13;;;;;;;18.70;14.40;;;;;;;;;;4975018;28;20073;-76
2023/04/16 01:34:39;;;;;;;17.80;13.57;;;;;;;;;;4959289;28;20058;-76
2023/04/16 01:37:06;;;;;;;17.40;12.82;;;;;;;;;;4975210;28;20050;-77
2023/04/16 01:39:33;;;;;;;18.02;13.23;;;;;;;;;;4974950;28;20062;-77
2023/04/16 01:42:00;;;;;;;18.88;14.13;;;;;;;;;;4959118;28;20054;-76
2023/04/16 01:44:26;;;;;;;16.88;13.38;;;;;;;;;;4959366;28;20065;-78
2023/04/16 01:46:53;;;;;;;17.55;12.82;;;;;;;;;;4977328;28;20058;-78
2023/04/16 01:49:20;;;;;;;16.83;12.80;;;;;;;;;;4960101;28;20565;-78
2023/04/16 01:51:47;;;;;;;18.70;13.50;;;;;;;;;;4960748;28;20053;-78
2023/04/16 01:54:14;;;;;;;19.33;12.85;;;;;;;;;;4960698;28;20054;-79
2023/04/16 01:56:41;;;;;;;16.63;12.32;;;;;;;;;;4975137;28;20053;-77
2023/04/16 01:59:07;;;;;;;16.60;12.10;;;;;;;;;;4977565;28;20663;-77
2023/04/16 02:01:35;;;;;;;16.10;12.27;;;;;;;;;;4996361;28;20050;-78
2023/04/16 02:04:01;;;;;;;18.67;12.02;;;;;;;;;;4996687;28;20057;-78
2023/04/16 02:06:29;;;;;;;15.85;12.23;;;;;;;;;;4963756;28;20050;-78
2023/04/16 02:08:56;;;;;;;17.60;12.68;;;;;;;;;;4963844;28;20230;-78
2023/04/16 02:11:22;;;;;;;17.95;12.50;;;;;;;;;;4978964;28;20058;-79
2023/04/16 02:13:49;;;;;;;17.05;12.05;;;;;;;;;;4995544;28;20108;-79
2023/04/16 02:16:16;;;;;;;16.00;11.90;;;;;;;;;;4992462;28;20058;-80
2023/04/16 02:18:42;;;;;;;19.45;12.50;;;;;;;;;;4987832;28;20112;-81
2023/04/16 02:21:09;;;;;;;19.33;12.80;;;;;;;;;;4976106;28;20065;-80
2023/04/16 02:23:39;;;;;;;21.13;13.25;;;;;;;;;;4975225;28;20050;-80
2023/04/16 02:26:06;;;;;;;16.02;11.88;;;;;;;;;;4980524;28;20103;-79
2023/04/16 02:28:33;;;;;;;17.50;13.18;;;;;;;;;;4981416;28;20066;-80
2023/04/16 02:31:00;;;;;;;16.63;12.48;;;;;;;;;;4980590;28;20060;-81
2023/04/16 02:33:26;;;;;;;16.58;12.32;;;;;;;;;;4981658;28;20058;-80
2023/04/16 02:35:53;;;;;;;17.90;13.07;;;;;;;;;;5014835;28;20057;-80
2023/04/16 02:38:20;;;;;;;19.83;13.60;;;;;;;;;;4961172;28;20451;-80
2023/04/16 02:40:47;;;;;;;19.55;13.30;;;;;;;;;;4959682;28;20064;-80
2023/04/16 02:43:13;;;;;;;19.30;12.63;;;;;;;;;;4959727;28;20058;-81
2023/04/16 02:45:40;;;;;;;20.27;14.30;;;;;;;;;;4959739;28;20499;-80
2023/04/16 02:48:08;;;;;;;22.65;15.15;;;;;;;;;;4959343;28;20065;-78
2023/04/16 02:50:35;;;;;;;20.55;13.43;;;;;;;;;;4965664;28;20134;-78
2023/04/16 02:53:03;;;;;;;22.27;14.80;;;;;;;;;;4943509;28;20054;-79
2023/04/16 02:55:29;;;;;;;19.13;13.85;;;;;;;;;;4975214;28;20141;-79
2023/04/16 02:57:56;;;;;;;22.10;14.32;;;;;;;;;;4975852;28;20046;-80
2023/04/16 03:00:23;;;;;;;25.38;14.45;;;;;;;;;;4974973;28;20068;-79
2023/04/16 03:02:50;;;;;;;19.17;13.80;;;;;;;;;;4950161;28;20054;-80
2023/04/16 03:05:17;;;;;;;19.95;14.38;;;;;;;;;;4976142;28;20499;-80
2023/04/16 03:07:44;;;;;;;19.95;13.30;;;;;;;;;;4975975;28;20050;-80
2023/04/16 03:10:12;;;;;;;20.80;14.05;;;;;;;;;;4975927;28;20054;-80
2023/04/16 03:12:38;;;;;;;21.05;14.88;;;;;;;;;;4975646;28;20690;-80
2023/04/16 03:15:06;;;;;;;19.83;14.27;;;;;;;;;;4975994;28;20108;-80
2023/04/16 03:17:32;;;;;;;20.33;14.45;;;;;;;;;;4975189;28;20055;-79
2023/04/16 03:19:59;;;;;;;18.25;13.57;;;;;;;;;;4959433;28;20122;-80
2023/04/16 03:22:26;;;;;;;21.27;15.10;;;;;;;;;;4980040;28;20065;-80
2023/04/16 03:24:52;;;;;;;18.52;13.45;;;;;;;;;;4985111;28;20054;-80
2023/04/16 03:27:19;;;;;;;18.38;13.75;;;;;;;;;;4990787;28;20061;-79
2023/04/16 03:29:46;;;;;;;19.05;14.15;;;;;;;;;;4990820;28;20065;-79
2023/04/16 03:32:13;;;;;;;18.35;13.80;;;;;;;;;;4959964;28;20478;-79
2023/04/16 03:34:40;;;;;;;20.27;13.80;;;;;;;;;;4975860;28;20077;-80
2023/04/16 03:37:10;;;;;;;16.80;12.85;;;;;;;;;;4975760;28;20483;-79
2023/04/16 03:39:37;;;;;;;19.70;12.98;;;;;;;;;;4976245;28;20561;-81
2023/04/16 03:42:04;;;;;;;20.75;13.05;;;;;;;;;;4975356;28;20066;-79
2023/04/16 03:44:31;;;;;;;17.15;12.88;;;;;;;;;;4975477;28;20050;-80
2023/04/16 03:46:58;;;;;;;17.75;12.38;;;;;;;;;;4975900;28;20060;-80
2023/04/16 03:49:24;;;;;;;18.58;13.05;;;;;;;;;;4980558;28;20097;-80
2023/04/16 03:51:51;;;;;;;16.73;11.82;;;;;;;;;;4964131;28;20054;-80
2023/04/16 03:54:18;;;;;;;17.83;12.10;;;;;;;;;;4980994;28;20064;-80
2023/04/16 03:56:48;;;;;;;18.40;12.48;;;;;;;;;;4982084;28;20060;-80
2023/04/16 03:59:14;;;;;;;18.75;12.95;;;;;;;;;;4997500;28;20489;-80
2023/04/16 04:01:41;;;;;;;19.70;13.00;;;;;;;;;;4964161;28;20049;-80
2023/04/16 04:04:08;;;;;;;19.52;13.55;;;;;;;;;;5006328;28;20145;-79
2023/04/16 04:06:35;;;;;;;19.13;13.63;;;;;;;;;;4992320;28;20080;-78
2023/04/16 04:09:02;;;;;;;22.90;15.32;;;;;;;;;;4967979;28;20058;-80
2023/04/16 04:11:29;;;;;;;22.75;14.88;;;;;;;;;;4981159;28;20053;-79
2023/04/16 04:13:56;;;;;;;25.17;15.15;;;;;;;;;;4999718;28;20054;-80
2023/04/16 04:16:23;;;;;;;23.02;14.52;;;;;;;;;;4983880;28;20580;-79
2023/04/16 04:18:50;;;;;;;24.17;15.07;;;;;;;;;;4984831;28;20108;-80
2023/04/16 04:21:16;;;;;;;23.38;14.98;;;;;;;;;;4984747;28;20057;-79
2023/04/16 04:23:43;;;;;;;23.27;15.48;;;;;;;;;;5001172;28;20076;-79
2023/04/16 04:26:10;;;;;;;25.05;16.05;;;;;;;;;;4994795;28;20085;-80
2023/04/16 04:28:37;;;;;;;24.25;15.02;;;;;;;;;;4965101;28;20050;-80
2023/04/16 04:31:04;;;;;;;23.17;15.48;;;;;;;;;;4980858;28;20081;-79
2023/04/16 04:33:30;;;;;;;21.27;14.52;;;;;;;;;;4983197;28;20050;-79
2023/04/16 04:35:57;;;;;;;24.02;14.40;;;;;;;;;;4965209;28;20054;-79
2023/04/16 04:38:24;;;;;;;24.73;14.68;;;;;;;;;;4971041;28;20050;-78
2023/04/16 04:40:51;;;;;;;26.15;15.10;;;;;;;;;;4983501;28;20136;-79
2023/04/16 04:43:19;;;;;;;23.08;14.45;;;;;;;;;;4983381;28;20058;-79
2023/04/16 04:45:46;;;;;;;26.80;15.35;;;;;;;;;;4982963;28;20061;-79
2023/04/16 04:48:13;;;;;;;26.17;16.17;;;;;;;;;;4983271;28;20053;-79
2023/04/16 04:50:40;;;;;;;24.92;16.05;;;;;;;;;;4999449;28;20265;-85
2023/04/16 04:53:10;;;;;;;22.48;14.38;;;;;;;;;;4987984;28;20057;-77
2023/04/16 04:55:38;;;;;;;26.75;15.55;;;;;;;;;;4998139;28;20053;-77
2023/04/16 04:58:05;;;;;;;25.23;15.23;;;;;;;;;;4966977;28;20085;-80
2023/04/16 05:00:32;;;;;;;26.67;15.35;;;;;;;;;;4962949;28;20046;-79
2023/04/16 05:03:04;;;;;;;24.20;15.90;;;;;;;;;;4963616;28;20090;-80
2023/04/16 05:05:31;;;;;;;24.52;14.52;;;;;;;;;;4965504;28;20062;-79
2023/04/16 05:07:58;;;;;;;29.48;15.88;;;;;;;;;;4962016;28;20054;-78
2023/04/16 05:10:25;;;;;;;27.35;16.30;;;;;;;;;;4960770;28;20062;-80
2023/04/16 05:12:52;;;;;;;26.98;16.63;;;;;;;;;;4961513;28;20150;-79
2023/04/16 05:15:19;;;;;;;27.63;17.30;;;;;;;;;;4979696;28;20061;-78
2023/04/16 05:17:46;;;;;;;31.23;17.13;;;;;;;;;;5015662;28;20165;-78
2023/04/16 05:20:13;;;;;;;34.92;19.13;;;;;;;;;;4976577;28;20069;-78
2023/04/16 05:22:40;;;;;;;31.13;18.40;;;;;;;;;;4961419;28;20050;-78
2023/04/16 05:25:07;;;;;;;28.52;17.17;;;;;;;;;;4980682;28;20426;-77
2023/04/16 05:27:34;;;;;;;28.10;17.70;;;;;;;;;;4996784;28;20046;-78
2023/04/16 05:30:01;;;;;;;29.63;18.38;;;;;;;;;;4980861;28;20046;-78
2023/04/16 05:32:28;;;;;;;33.40;18.17;;;;;;;;;;4981452;28;20415;-78
2023/04/16 05:34:55;;;;;;;33.42;20.02;;;;;;;;;;4980648;28;20058;-78
2023/04/16 05:37:22;;;;;;;34.38;19.70;;;;;;;;;;4985326;28;20053;-78
2023/04/16 05:39:48;;;;;;;33.53;19.27;;;;;;;;;;4996726;28;20057;-79
2023/04/16 05:42:15;;;;;;;34.17;20.02;;;;;;;;;;4979927;28;20061;-78
2023/04/16 05:44:42;;;;;;;32.58;19.35;;;;;;;;;;4968770;28;20069;-79
2023/04/16 05:47:09;;;;;;;31.58;18.42;;;;;;;;;;4978448;28;20595;-80
2023/04/16 05:49:38;;;;;;;32.53;19.60;;;;;;;;;;4993699;28;20060;-79
2023/04/16 05:52:06;;;;;;;36.20;21.40;;;;;;;;;;4978272;28;20058;-79
2023/04/16 05:54:33;;;;;;;37.08;21.02;;;;;;;;;;4963656;28;20058;-79
2023/04/16 05:57:00;;;;;;;40.17;23.17;;;;;;;;;;4979816;28;20050;-78
2023/04/16 05:59:28;;;;;;;44.15;22.80;;;;;;;;;;4947030;28;20046;-78
2023/04/16 06:01:55;;;;;;;42.95;23.52;;;;;;;;;;4961265;28;20070;-79
2023/04/16 06:04:21;;;;;;;45.22;24.80;;;;;;;;;;4978148;28;20054;-79
2023/04/16 06:06:48;;;;;;;47.20;25.17;;;;;;;;;;4946115;28;20073;-79
2023/04/16 06:09:15;;;;;;;46.00;25.33;;;;;;;;;;4962639;28;20505;-79
2023/04/16 06:11:42;;;;;;;50.70;25.02;;;;;;;;;;4969792;28;20454;-78
2023/04/16 06:14:09;;;;;;;44.67;24.08;;;;;;;;;;4965987;28;20062;-78
2023/04/16 06:16:36;;;;;;;47.50;25.88;;;;;;;;;;4966427;28;20466;-78
2023/04/16 06:19:03;;;;;;;42.17;23.85;;;;;;;;;;4997630;28;20604;-79
2023/04/16 06:21:30;;;;;;;44.60;25.27;;;;;;;;;;5000638;28;20681;-80
2023/04/16 06:23:57;;;;;;;53.25;26.15;;;;;;;;;;5006431;28;20085;-78
2023/04/16 06:26:24;;;;;;;50.67;24.98;;;;;;;;;;4988527;28;20058;-79
2023/04/16 06:28:51;;;;;;;45.58;24.85;;;;;;;;;;4978264;28;20058;-79
2023/04/16 06:31:17;;;;;;;40.80;24.92;;;;;;;;;;4962011;28;20065;-79
2023/04/16 06:33:44;;;;;;;41.10;23.70;;;;;;;;;;4986356;28;20058;-79
2023/04/16 06:36:11;;;;;;;41.92;23.30;;;;;;;;;;4993990;28;20058;-80
2023/04/16 06:38:38;;;;;;;35.83;21.05;;;;;;;;;;4945769;28;20054;-81
2023/04/16 06:41:05;;;;;;;41.10;23.08;;;;;;;;;;4992603;28;20480;-80
2023/04/16 06:43:32;;;;;;;39.17;22.98;;;;;;;;;;4997220;28;20056;-80
2023/04/16 06:45:59;;;;;;;42.92;24.25;;;;;;;;;;4996748;28;20057;-79
2023/04/16 06:48:26;;;;;;;42.17;23.88;;;;;;;;;;4980282;28;20061;-76
2023/04/16 06:50:54;;;;;;;39.95;22.65;;;;;;;;;;4977771;28;20073;-75
2023/04/16 06:53:20;;;;;;;40.13;22.88;;;;;;;;;;4960197;28;20431;-75
2023/04/16 06:55:47;;;;;;;41.88;23.88;;;;;;;;;;4992535;28;20054;-77
2023/04/16 06:58:14;;;;;;;39.72;23.70;;;;;;;;;;4976628;28;20054;-76
2023/04/16 07:00:41;;;;;;;40.10;22.75;;;;;;;;;;4994175;28;20109;-79
2023/04/16 07:03:07;;;;;;;38.60;23.23;;;;;;;;;;4979975;28;20528;-77
2023/04/16 07:05:34;;;;;;;41.92;23.83;;;;;;;;;;4996859;28;20128;-78
2023/04/16 07:08:01;;;;;;;40.20;22.15;;;;;;;;;;4995797;28;20054;-77
2023/04/16 07:10:28;;;;;;;35.97;22.42;;;;;;;;;;4960248;28;20069;-78
2023/04/16 07:12:55;;;;;;;43.83;25.73;;;;;;;;;;4960976;28;20057;-79
2023/04/16 07:15:21;;;;;;;41.45;24.40;;;;;;;;;;4962798;28;20774;-78
2023/04/16 07:17:48;;;;;;;54.92;29.73;;;;;;;;;;4977761;28;20054;-79
2023/04/16 07:20:15;;;;;;;49.50;28.23;;;;;;;;;;4976759;28;20145;-78
2023/04/16 07:22:42;;;;;;;42.35;23.98;;;;;;;;;;4967137;28;20413;-78
2023/04/16 07:25:09;;;;;;;43.20;23.73;;;;;;;;;;5003951;28;20420;-78
2023/04/16 07:27:35;;;;;;;39.58;22.52;;;;;;;;;;4966579;28;20054;-77
2023/04/16 07:30:02;;;;;;;37.17;22.98;;;;;;;;;;4994798;28;20057;-77
2023/04/16 07:32:29;;;;;;;39.17;22.55;;;;;;;;;;4964629;28;20348;-77
2023/04/16 07:34:56;;;;;;;40.05;22.75;;;;;;;;;;4995616;28;20141;-79
2023/04/16 07:37:23;;;;;;;39.88;22.42;;;;;;;;;;4989845;28;20054;-76
2023/04/16 07:39:50;;;;;;;36.53;21.98;;;;;;;;;;4991384;28;20061;-75
2023/04/16 07:42:17;;;;;;;36.33;20.20;;;;;;;;;;4991635;28;20065;-76
2023/04/16 07:44:44;;;;;;;35.92;21.35;;;;;;;;;;4991763;28;20064;-76
2023/04/16 07:47:10;;;;;;;34.42;20.25;;;;;;;;;;4979644;28;20060;-74
2023/04/16 07:49:37;;;;;;;35.90;20.52;;;;;;;;;;4995874;28;20053;-75
2023/04/16 07:52:04;;;;;;;33.65;20.95;;;;;;;;;;4979020;28;20053;-75
2023/04/16 07:54:31;;;;;;;35.45;21.08;;;;;;;;;;4995655;28;20057;-75
2023/04/16 07:56:58;;;;;;;37.00;22.30;;;;;;;;;;4997091;28;20063;-75
2023/04/16 07:59:24;;;;;;;35.47;20.35;;;;;;;;;;5013494;28;20054;-78
2023/04/16 08:01:52;;;;;;;33.72;20.73;;;;;;;;;;4947308;28;20058;-75
2023/04/16 08:04:23;;;;;;;35.47;22.30;;;;;;;;;;4959702;28;20054;-74
2023/04/16 08:06:51;;;;;;;39.22;23.23;;;;;;;;;;4976112;28;20061;-73
2023/04/16 08:09:20;;;;;;;38.35;24.00;;;;;;;;;;4959793;28;20081;-73
2023/04/16 08:11:48;;;;;;;35.95;23.00;;;;;;;;;;4975865;28;20065;-75
2023/04/16 08:14:16;;;;;;;34.47;22.25;;;;;;;;;;4974962;28;20054;-74
2023/04/16 08:16:43;;;;;;;31.05;21.63;;;;;;;;;;4992628;28;20093;-77
2023/04/16 08:19:09;;;;;;;33.28;21.58;;;;;;;;;;4989091;28;20054;-77
2023/04/16 08:21:37;;;;;;;32.75;21.33;;;;;;;;;;4996152;28;20503;-76
2023/04/16 08:24:03;;;;;;;33.00;20.88;;;;;;;;;;4994428;28;20053;-77
2023/04/16 08:26:30;;;;;;;33.70;21.15;;;;;;;;;;4977397;28;20046;-77
2023/04/16 08:28:57;;;;;;;33.72;19.88;;;;;;;;;;4976845;28;20058;-76
2023/04/16 08:31:23;;;;;;;27.75;17.38;;;;;;;;;;4976892;28;20060;-77
2023/04/16 08:33:50;;;;;;;22.15;15.05;;;;;;;;;;4976694;28;20054;-76
2023/04/16 08:36:17;;;;;;;26.52;17.45;;;;;;;;;;4960650;28;20058;-75
2023/04/16 08:38:43;;;;;;;22.52;15.88;;;;;;;;;;4978557;28;20065;-79
2023/04/16 08:41:11;;;;;;;23.02;15.27;;;;;;;;;;4978785;28;20062;-77
2023/04/16 08:43:43;;;;;;;24.00;16.13;;;;;;;;;;4962007;28;20426;-77
2023/04/16 08:46:11;;;;;;;21.67;16.27;;;;;;;;;;4981066;28;20520;-77
2023/04/16 08:48:38;;;;;;;24.88;16.50;;;;;;;;;;4980577;28;20060;-77
2023/04/16 08:51:04;;;;;;;26.27;16.42;;;;;;;;;;4996773;28;20058;-78
2023/04/16 08:53:38;;;;;;;20.70;15.07;;;;;;;;;;4965455;28;20054;-77
2023/04/16 08:56:05;;;;;;;23.50;15.23;;;;;;;;;;4983386;28;20510;-76
2023/04/16 08:58:34;;;;;;;24.90;15.63;;;;;;;;;;4969796;28;20816;-85
2023/04/16 09:01:04;;;;;;;22.58;14.85;;;;;;;;;;4991667;28;20104;-76
2023/04/16 09:03:31;;;;;;;21.42;15.00;;;;;;;;;;4981520;28;20049;-77
2023/04/16 09:06:02;;;;;;;24.33;15.95;;;;;;;;;;4962571;28;20049;-75
2023/04/16 09:08:28;;;;;;;25.20;16.08;;;;;;;;;;4980599;28;20461;-76
2023/04/16 09:10:56;;;;;;;27.13;18.85;;;;;;;;;;4976765;28;20058;-75
2023/04/16 09:13:24;;;;;;;28.13;20.55;;;;;;;;;;4978576;28;20466;-78
2023/04/16 09:15:52;;;;;;;26.92;19.10;;;;;;;;;;4968958;28;20495;-78
2023/04/16 09:18:20;;;;;;;29.27;20.92;;;;;;;;;;4980135;28;20078;-78
2023/04/16 09:20:48;;;;;;;26.50;16.80;;;;;;;;;;4978491;28;20126;-77
2023/04/16 09:23:15;;;;;;;25.20;15.95;;;;;;;;;;4976882;28;20077;-76
2023/04/16 09:25:42;;;;;;;24.85;16.52;;;;;;;;;;4975810;28;20051;-75
2023/04/16 09:28:09;;;;;;;24.05;14.45;;;;;;;;;;4962908;28;20058;-77
2023/04/16 09:30:37;;;;;;;27.08;17.98;;;;;;;;;;4963237;28;20061;-76
2023/04/16 09:33:21;;;;;;;24.48;15.57;;;;;;;;;;4982128;28;20060;-77
2023/04/16 09:35:50;;;;;;;32.30;17.65;;;;;;;;;;4979689;28;20060;-75
2023/04/16 09:38:17;;;;;;;25.67;16.70;;;;;;;;;;4979114;28;20395;-76
2023/04/16 09:40:48;;;;;;;29.02;17.80;;;;;;;;;;4962879;28;20058;-76
2023/04/16 09:43:17;;;;;;;27.05;17.77;;;;;;;;;;4996051;28;20077;-77
2023/04/16 09:45:51;;;;;;;27.00;16.70;;;;;;;;;;4975511;28;20132;-77
2023/04/16 09:48:31;;;;;;;24.55;15.95;;;;;;;;;;4975917;28;20058;-77
2023/04/16 09:50:59;;;;;;;30.88;18.17;;;;;;;;;;4976891;28;20062;-77
2023/04/16 09:53:30;;;;;;;24.20;17.25;;;;;;;;;;4975301;28;20058;-77
2023/04/16 09:55:57;;;;;;;25.63;16.58;;;;;;;;;;4975996;28;20062;-77
2023/04/16 09:58:24;;;;;;;28.23;17.98;;;;;;;;;;4981611;28;20082;-75
2023/04/16 10:01:04;;;;;;;26.17;16.73;;;;;;;;;;4969268;28;20524;-76
2023/04/16 10:03:32;;;;;;;28.05;15.88;;;;;;;;;;4978008;28;20085;-77
2023/04/16 10:06:06;;;;;;;26.02;15.07;;;;;;;;;;4977608;28;20057;-76
2023/04/16 10:08:32;;;;;;;26.83;16.52;;;;;;;;;;4978842;28;20062;-76
2023/04/16 10:10:59;;;;;;;27.80;17.77;;;;;;;;;;4993971;28;20063;-77
2023/04/16 10:13:27;;;;;;;30.25;17.60;;;;;;;;;;4977966;28;20060;-76
2023/04/16 10:15:55;;;;;;;30.70;18.08;;;;;;;;;;4974719;28;20064;-76
2023/04/16 10:18:22;;;;;;;32.63;19.05;;;;;;;;;;4997976;28;20049;-77
2023/04/16 10:20:49;;;;;;;33.88;18.90;;;;;;;;;;4999223;28;20057;-77
2023/04/16 10:23:16;;;;;;;34.40;19.13;;;;;;;;;;5014617;28;20057;-77
2023/04/16 10:25:43;;;;;;;32.13;19.88;;;;;;;;;;5000372;28;20076;-77
2023/04/16 10:28:10;;;;;;;33.65;19.63;;;;;;;;;;5011940;28;20054;-77
2023/04/16 10:30:37;;;;;;;25.90;16.80;;;;;;;;;;4981412;28;20625;-77
2023/04/16 10:33:04;;;;;;;28.00;18.35;;;;;;;;;;4967269;28;20068;-77
2023/04/16 10:35:31;;;;;;;37.08;24.10;;;;;;;;;;4964300;28;20057;-77
2023/04/16 10:38:26;;;;;;;36.00;24.02;;;;;;;;;;4995644;28;20053;-77
2023/04/16 10:41:03;;;;;;;28.65;17.98;;;;;;;;;;4966359;28;20145;-78
2023/04/16 10:43:33;;;;;;;28.30;18.58;;;;;;;;;;4968652;28;20061;-77
2023/04/16 10:46:39;;;;;;;27.90;17.75;;;;;;;;;;4980580;28;20057;-78
2023/04/16 10:49:21;;;;;;;33.45;17.00;;;;;;;;;;4991965;28;20069;-77
2023/04/16 10:52:06;;;;;;;27.42;16.30;;;;;;;;;;5005669;28;20062;-78
2023/04/16 10:54:35;;;;;;;25.20;15.60;;;;;;;;;;4989617;28;20057;-77
2023/04/16 10:57:09;;;;;;;25.02;16.13;;;;;;;;;;4986841;28;20080;-75
2023/04/16 10:59:37;;;;;;;21.60;13.82;;;;;;;;;;4974406;28;20627;-76
2023/04/16 11:02:10;;;;;;;24.45;14.75;;;;;;;;;;4957760;28;20128;-76
2023/04/16 11:04:38;;;;;;;26.38;16.23;;;;;;;;;;4974191;28;20481;-76
2023/04/16 11:07:14;;;;;;;21.35;13.55;;;;;;;;;;4957929;28;20061;-75
2023/04/16 11:09:50;;;;;;;21.88;13.77;;;;;;;;;;4989867;28;20625;-76
2023/04/16 11:12:17;;;;;;;21.30;12.90;;;;;;;;;;4982119;28;20375;-76
2023/04/16 11:14:52;;;;;;;18.70;12.32;;;;;;;;;;4990089;28;20431;-76
2023/04/16 11:17:20;;;;;;;24.23;13.23;;;;;;;;;;4989839;28;20093;-76
2023/04/16 11:19:47;;;;;;;20.60;12.27;;;;;;;;;;4973234;28;20766;-76
2023/04/16 11:22:16;;;;;;;16.55;11.02;;;;;;;;;;4957875;28;20054;-76
2023/04/16 11:24:46;;;;;;;19.45;11.73;;;;;;;;;;4974162;28;20536;-75
2023/04/16 11:27:14;;;;;;;18.42;11.45;;;;;;;;;;4989895;28;20085;-77
2023/04/16 11:29:42;;;;;;;18.42;11.60;;;;;;;;;;4982543;28;20050;-78
2023/04/16 11:32:20;;;;;;;20.63;12.27;;;;;;;;;;4996972;28;20066;-77
2023/04/16 11:34:47;;;;;;;19.13;12.55;;;;;;;;;;4961598;28;20065;-77
2023/04/16 11:37:15;;;;;;;17.92;10.95;;;;;;;;;;4980156;28;20078;-77
2023/04/16 11:39:51;;;;;;;18.55;11.23;;;;;;;;;;4979895;28;20541;-78
2023/04/16 11:42:21;;;;;;;20.75;11.75;;;;;;;;;;4960644;28;20058;-76
2023/04/16 11:44:54;;;;;;;14.85;9.07;;;;;;;;;;4959001;28;20113;-77
2023/04/16 11:47:22;;;;;;;14.90;9.50;;;;;;;;;;4958717;28;20100;-78
2023/04/16 11:49:50;;;;;;;19.77;11.10;;;;;;;;;;4974411;28;20058;-76
2023/04/16 11:52:32;;;;;;;15.80;10.02;;;;;;;;;;4957768;28;20054;-76
2023/04/16 11:54:59;;;;;;;16.75;10.30;;;;;;;;;;4965140;28;20121;-76
2023/04/16 11:57:30;;;;;;;15.15;9.30;;;;;;;;;;4973166;28;20058;-76
2023/04/16 11:59:57;;;;;;;15.30;9.68;;;;;;;;;;4973025;28;20069;-76
2023/04/16 12:02:42;;;;;;;14.10;9.45;;;;;;;;;;4973886;28;20061;-75
2023/04/16 12:05:39;;;;;;;14.85;8.15;;;;;;;;;;4973459;28;20062;-76
2023/04/16 12:08:10;;;;;;;13.02;8.75;;;;;;;;;;4957510;28;20054;-75
2023/04/16 12:10:52;;;;;;;15.05;8.88;;;;;;;;;;4992236;28;20527;-75
2023/04/16 12:13:19;;;;;;;14.25;7.80;;;;;;;;;;4976617;28;20148;-77
2023/04/16 12:15:47;;;;;;;12.85;8.45;;;;;;;;;;4977972;28;20065;-77
2023/04/16 12:18:16;;;;;;;10.90;7.70;;;;;;;;;;4979031;28;20065;-77
2023/04/16 12:20:43;;;;;;;11.73;8.07;;;;;;;;;;4962361;28;20054;-76
2023/04/16 12:23:23;;;;;;;10.00;7.13;;;;;;;;;;4994581;28;20093;-77
2023/04/16 12:25:51;;;;;;;10.32;7.50;;;;;;;;;;4963324;28;20140;-77
2023/04/16 12:28:30;;;;;;;13.32;8.15;;;;;;;;;;4978873;28;20061;-77
2023/04/16 12:30:57;;;;;;;11.95;8.07;;;;;;;;;;4994779;28;20116;-76
2023/04/16 12:33:24;;;;;;;9.85;7.50;;;;;;;;;;4996246;28;20057;-79
2023/04/16 12:35:51;;;;;;;12.10;7.63;;;;;;;;;;4981380;28;20188;-77
2023/04/16 12:38:18;;;;;;;10.05;7.13;;;;;;;;;;4972806;28;20529;-75
2023/04/16 12:40:47;;;;;;;8.02;5.80;;;;;;;;;;4979900;28;20053;-77
2023/04/16 12:43:14;;;;;;;9.95;6.53;;;;;;;;;;4996376;28;20065;-77
2023/04/16 12:45:41;;;;;;;9.25;6.40;;;;;;;;;;4981021;28;20058;-77
2023/04/16 12:48:09;;;;;;;7.85;6.55;;;;;;;;;;5012302;28;20061;-76
2023/04/16 12:50:38;;;;;;;8.73;6.57;;;;;;;;;;5010227;28;20054;-77
2023/04/16 12:53:05;;;;;;;8.07;5.88;;;;;;;;;;4979876;28;20530;-77
2023/04/16 12:55:32;;;;;;;9.20;5.78;;;;;;;;;;4995394;28;20065;-76
2023/04/16 12:57:58;;;;;;;9.35;6.47;;;;;;;;;;4995803;28;20525;-77
2023/04/16 13:00:25;;;;;;;10.80;7.05;;;;;;;;;;4980610;28;20057;-77
2023/04/16 13:02:52;;;;;;;9.85;6.65;;;;;;;;;;4994450;28;20046;-77
2023/04/16 13:05:19;;;;;;;9.65;6.50;;;;;;;;;;4989621;28;20061;-77
2023/04/16 13:07:46;;;;;;;9.48;6.57;;;;;;;;;;4974115;28;20065;-76
2023/04/16 13:10:13;;;;;;;9.57;7.40;;;;;;;;;;4976515;28;20060;-77
2023/04/16 13:12:40;;;;;;;9.27;7.18;;;;;;;;;;4976110;28;20109;-77
2023/04/16 13:15:07;;;;;;;8.75;6.88;;;;;;;;;;4960104;28;20053;-77
2023/04/16 13:17:34;;;;;;;9.27;6.70;;;;;;;;;;4979739;28;20062;-76
2023/04/16 13:20:01;;;;;;;9.57;6.93;;;;;;;;;;4998005;28;20579;-76
2023/04/16 13:22:27;;;;;;;9.95;6.82;;;;;;;;;;4974716;28;20750;-77
2023/04/16 13:24:54;;;;;;;13.00;7.85;;;;;;;;;;4976408;28;20065;-78
2023/04/16 13:27:21;;;;;;;8.15;6.38;;;;;;;;;;4977053;28;20058;-77
2023/04/16 13:29:47;;;;;;;10.60;7.47;;;;;;;;;;4975502;28;20054;-77
2023/04/16 13:32:14;;;;;;;13.85;9.48;;;;;;;;;;4959244;28;20054;-78
2023/04/16 13:34:41;;;;;;;11.70;8.48;;;;;;;;;;4975673;28;20068;-77
2023/04/16 13:37:08;;;;;;;10.95;8.07;;;;;;;;;;4975704;28;20062;-77
2023/04/16 13:39:35;;;;;;;12.48;7.90;;;;;;;;;;4942777;28;20060;-77
2023/04/16 13:42:02;;;;;;;10.95;7.55;;;;;;;;;;4974895;28;20141;-77
2023/04/16 13:44:28;;;;;;;11.93;8.50;;;;;;;;;;4974198;28;20053;-76
2023/04/16 13:46:55;;;;;;;13.23;8.85;;;;;;;;;;4973793;28;20073;-77
2023/04/16 13:49:22;;;;;;;11.02;7.75;;;;;;;;;;4973994;28;20078;-76
2023/04/16 13:51:49;;;;;;;13.07;9.00;;;;;;;;;;4973091;28;20057;-77
2023/04/16 13:54:16;;;;;;;12.60;9.65;;;;;;;;;;4973609;28;20058;-76
2023/04/16 13:56:42;;;;;;;12.43;8.73;;;;;;;;;;4973718;28;20050;-76
2023/04/16 13:59:09;;;;;;;13.55;9.85;;;;;;;;;;4958106;28;20092;-76
2023/04/16 14:01:37;;;;;;;15.13;10.35;;;;;;;;;;4958425;28;20461;-76
2023/04/16 14:04:05;;;;;;;13.55;8.55;;;;;;;;;;4989670;28;20050;-77
2023/04/16 14:06:33;;;;;;;15.52;10.52;;;;;;;;;;4969558;28;20045;-78
2023/04/16 14:09:00;;;;;;;12.73;9.00;;;;;;;;;;4977761;28;20540;-79
2023/04/16 14:11:27;;;;;;;11.98;9.32;;;;;;;;;;4978240;28;20046;-76
2023/04/16 14:13:55;;;;;;;11.95;9.15;;;;;;;;;;4985469;28;20058;-76
2023/04/16 14:16:22;;;;;;;13.88;10.10;;;;;;;;;;4977466;28;20440;-75
2023/04/16 14:18:50;;;;;;;16.08;9.50;;;;;;;;;;4972733;28;20137;-75
2023/04/16 14:21:17;;;;;;;13.68;9.40;;;;;;;;;;4975438;28;20146;-77
2023/04/16 14:23:44;;;;;;;14.95;10.23;;;;;;;;;;4957234;28;20066;-77